createdAt,value
2018-12-27T00:02:22.370Z,-1.68
2018-12-27T00:05:12.464Z,-1.65
2018-12-27T00:08:02.974Z,-1.59
2018-12-27T00:10:53.194Z,-1.58
2018-12-27T00:13:43.006Z,-1.59
2018-12-27T00:16:32.989Z,-1.59
2018-12-27T00:19:22.938Z,-1.76
2018-12-27T00:22:12.817Z,-1.83
2018-12-27T00:25:02.644Z,-1.85
2018-12-27T00:27:52.505Z,-1.97
2018-12-27T00:30:42.174Z,-2.14
2018-12-27T00:33:32.268Z,-2.08
2018-12-27T00:36:22.731Z,-2.12
2018-12-27T00:39:13.331Z,-2.14
2018-12-27T00:42:03.566Z,-2.17
2018-12-27T00:44:53.754Z,-2.27
2018-12-27T00:47:44.252Z,-2.26
2018-12-27T00:50:34.546Z,-2.13
2018-12-27T00:53:24.755Z,-2.13
2018-12-27T00:56:15.608Z,-2.04
2018-12-27T00:59:05.152Z,-1.95
2018-12-27T01:01:55.472Z,-1.97
2018-12-27T01:05:04.657Z,-1.93
2018-12-27T01:07:54.690Z,-1.93
2018-12-27T01:10:44.781Z,-1.97
2018-12-27T01:13:35.253Z,-1.92
2018-12-27T01:16:25.457Z,-1.88
2018-12-27T01:19:15.283Z,-1.85
2018-12-27T01:22:05.619Z,-1.82
2018-12-27T01:24:55.917Z,-1.80
2018-12-27T01:27:46.438Z,-1.77
2018-12-27T01:30:36.970Z,-1.83
2018-12-27T01:33:26.878Z,-1.78
2018-12-27T01:36:16.973Z,-1.74
2018-12-27T01:39:07.387Z,-1.73
2018-12-27T01:41:57.526Z,-1.77
2018-12-27T01:44:47.783Z,-1.89
2018-12-27T01:47:38.216Z,-1.85
2018-12-27T01:50:28.053Z,-1.77
2018-12-27T01:53:18.993Z,-1.73
2018-12-27T01:56:09.014Z,-2.04
2018-12-27T01:58:59.144Z,-2.05
2018-12-27T02:01:48.922Z,-2.01
2018-12-27T02:04:39.090Z,-1.99
2018-12-27T02:07:28.920Z,-2.07
2018-12-27T02:10:18.911Z,-2.00
2018-12-27T02:13:08.850Z,-1.99
2018-12-27T02:15:58.879Z,-1.95
2018-12-27T02:18:49.376Z,-2.03
2018-12-27T02:21:45.087Z,-2.06
2018-12-27T02:24:35.234Z,-2.04
2018-12-27T02:27:25.925Z,-2.10
2018-12-27T02:30:16.400Z,-2.30
2018-12-27T02:33:06.523Z,-2.24
2018-12-27T02:35:58.665Z,-2.23
2018-12-27T02:38:48.873Z,-2.20
2018-12-27T02:41:39.083Z,-2.10
2018-12-27T02:44:29.204Z,-2.12
2018-12-27T02:47:19.487Z,-2.13
2018-12-27T02:50:09.686Z,-2.16
2018-12-27T02:53:00.111Z,-2.17
2018-12-27T02:55:50.090Z,-2.29
2018-12-27T02:58:40.649Z,-2.31
2018-12-27T03:01:31.168Z,-2.28
2018-12-27T03:04:21.337Z,-2.24
2018-12-27T03:07:11.582Z,-2.24
2018-12-27T03:10:02.099Z,-2.23
2018-12-27T03:12:52.338Z,-2.25
2018-12-27T03:15:42.793Z,-2.23
2018-12-27T03:18:32.541Z,-2.22
2018-12-27T03:21:23.227Z,-2.25
2018-12-27T03:24:13.288Z,-2.22
2018-12-27T03:27:03.465Z,-2.35
2018-12-27T03:29:53.422Z,-2.33
2018-12-27T03:32:43.629Z,-2.36
2018-12-27T03:35:34.159Z,-2.35
2018-12-27T03:38:23.821Z,-2.36
2018-12-27T03:41:13.669Z,-2.58
2018-12-27T03:44:03.873Z,-2.61
2018-12-27T03:46:54.017Z,-2.68
2018-12-27T03:49:44.031Z,-2.64
2018-12-27T03:52:34.390Z,-2.55
2018-12-27T03:55:25.169Z,-2.45
2018-12-27T03:58:15.233Z,-2.36
2018-12-27T04:01:04.815Z,-2.31
2018-12-27T04:04:01.435Z,-2.24
2018-12-27T04:06:46.370Z,-2.23
2018-12-27T04:09:36.132Z,-2.26
2018-12-27T04:12:26.142Z,-2.23
2018-12-27T04:15:16.235Z,-2.26
2018-12-27T04:18:06.502Z,-2.28
2018-12-27T04:20:58.228Z,-2.36
2018-12-27T04:23:48.990Z,-2.36
2018-12-27T04:26:38.717Z,-2.37
2018-12-27T04:29:28.590Z,-2.45
2018-12-27T04:32:18.541Z,-2.43
2018-12-27T04:35:08.098Z,-2.45
2018-12-27T04:37:58.162Z,-2.48
2018-12-27T04:40:48.073Z,-2.47
2018-12-27T04:43:38.675Z,-2.45
2018-12-27T04:46:28.703Z,-2.42
2018-12-27T04:49:18.592Z,-2.43
2018-12-27T04:52:08.054Z,-2.43
2018-12-27T04:54:58.207Z,-2.45
2018-12-27T04:57:47.706Z,-2.42
2018-12-27T05:00:37.500Z,-2.41
2018-12-27T05:03:27.311Z,-2.43
2018-12-27T05:06:17.630Z,-2.41
2018-12-27T05:09:08.054Z,-2.40
2018-12-27T05:11:58.391Z,-2.40
2018-12-27T05:14:47.800Z,-2.43
2018-12-27T05:17:38.164Z,-2.43
2018-12-27T05:20:28.241Z,-2.41
2018-12-27T05:23:18.470Z,-2.40
2018-12-27T05:26:08.304Z,-2.37
2018-12-27T05:28:58.235Z,-2.33
2018-12-27T05:31:48.422Z,-2.45
2018-12-27T05:34:38.761Z,-2.50
2018-12-27T05:37:28.994Z,-2.56
2018-12-27T05:40:18.707Z,-2.52
2018-12-27T05:43:09.282Z,-2.46
2018-12-27T05:45:59.948Z,-2.41
2018-12-27T05:48:50.063Z,-2.36
2018-12-27T05:51:40.269Z,-2.33
2018-12-27T05:54:30.064Z,-2.32
2018-12-27T05:57:20.024Z,-2.29
2018-12-27T06:00:10.137Z,-2.27
2018-12-27T06:03:00.613Z,-2.29
2018-12-27T06:05:50.650Z,-2.34
2018-12-27T06:08:40.342Z,-2.34
2018-12-27T06:11:30.583Z,-2.33
2018-12-27T06:14:20.760Z,-2.33
2018-12-27T06:17:11.036Z,-2.34
2018-12-27T06:20:01.549Z,-2.34
2018-12-27T06:22:51.790Z,-2.32
2018-12-27T06:25:41.793Z,-2.29
2018-12-27T06:28:32.562Z,-2.26
2018-12-27T06:31:22.373Z,-2.28
2018-12-27T06:34:12.581Z,-2.34
2018-12-27T06:37:02.501Z,-2.39
2018-12-27T06:39:52.672Z,-2.44
2018-12-27T06:42:42.433Z,-2.42
2018-12-27T06:45:33.091Z,-2.47
2018-12-27T06:48:23.449Z,-2.46
2018-12-27T06:51:13.489Z,-2.61
2018-12-27T06:54:03.725Z,-2.58
2018-12-27T06:56:54.060Z,-2.56
2018-12-27T06:59:44.266Z,-2.70
2018-12-27T07:02:34.713Z,-2.61
2018-12-27T07:05:25.047Z,-2.49
2018-12-27T07:08:15.157Z,-2.42
2018-12-27T07:11:05.338Z,-2.29
2018-12-27T07:13:55.639Z,-2.29
2018-12-27T07:16:45.869Z,-2.28
2018-12-27T07:19:36.117Z,-2.27
2018-12-27T07:22:26.831Z,-2.32
2018-12-27T07:25:16.703Z,-2.28
2018-12-27T07:28:06.508Z,-2.27
2018-12-27T07:30:56.695Z,-2.23
2018-12-27T07:33:46.667Z,-2.19
2018-12-27T07:36:36.662Z,-2.14
2018-12-27T07:39:26.689Z,-2.15
2018-12-27T07:42:16.863Z,-2.21
2018-12-27T07:45:07.173Z,-2.16
2018-12-27T07:47:56.905Z,-2.21
2018-12-27T07:50:46.864Z,-2.26
2018-12-27T07:53:37.161Z,-2.13
2018-12-27T07:56:26.885Z,-2.20
2018-12-27T07:59:16.903Z,-2.08
2018-12-27T08:02:07.319Z,-2.05
2018-12-27T08:05:03.690Z,-2.09
2018-12-27T08:07:48.873Z,-1.98
2018-12-27T08:10:41.066Z,-1.87
2018-12-27T08:13:30.994Z,-1.81
2018-12-27T08:16:26.315Z,-1.64
2018-12-27T08:19:15.930Z,-1.45
2018-12-27T08:22:06.497Z,-1.30
2018-12-27T08:24:56.592Z,-1.18
2018-12-27T08:27:47.280Z,-1.41
2018-12-27T08:30:37.392Z,-1.22
2018-12-27T08:33:28.007Z,-1.14
2018-12-27T08:36:18.130Z,-1.02
2018-12-27T08:39:08.508Z,-0.97
2018-12-27T08:41:58.208Z,-1.01
2018-12-27T08:44:48.454Z,-1.13
2018-12-27T08:47:38.660Z,-0.98
2018-12-27T08:50:28.568Z,-1.03
2018-12-27T08:53:18.805Z,-1.06
2018-12-27T08:56:08.885Z,-0.75
2018-12-27T08:58:58.691Z,-0.75
2018-12-27T09:01:48.648Z,-0.80
2018-12-27T09:04:38.579Z,-0.80
2018-12-27T09:07:28.242Z,-0.65
2018-12-27T09:10:18.203Z,-0.68
2018-12-27T09:13:08.405Z,-0.54
2018-12-27T09:15:58.698Z,-0.38
2018-12-27T09:18:48.155Z,-0.27
2018-12-27T09:21:38.363Z,-0.27
2018-12-27T09:24:28.618Z,-0.22
2018-12-27T09:27:19.189Z,-0.07
2018-12-27T09:30:09.347Z,0.08
2018-12-27T09:32:59.212Z,0.20
2018-12-27T09:35:49.153Z,0.31
2018-12-27T09:38:39.477Z,0.45
2018-12-27T09:41:29.905Z,0.48
2018-12-27T09:44:19.857Z,0.56
2018-12-27T09:47:09.779Z,0.59
2018-12-27T09:49:59.909Z,0.62
2018-12-27T09:52:50.004Z,0.67
2018-12-27T09:55:40.379Z,0.75
2018-12-27T09:58:30.591Z,0.83
2018-12-27T10:01:21.160Z,0.91
2018-12-27T10:04:11.207Z,1.00
2018-12-27T10:07:01.479Z,1.07
2018-12-27T10:09:51.974Z,1.16
2018-12-27T10:12:41.965Z,1.24
2018-12-27T10:15:31.963Z,1.16
2018-12-27T10:18:22.057Z,1.19
2018-12-27T10:21:12.037Z,1.32
2018-12-27T10:24:02.222Z,1.30
2018-12-27T10:26:52.316Z,1.33
2018-12-27T10:29:42.267Z,1.43
2018-12-27T10:32:32.634Z,1.52
2018-12-27T10:35:22.710Z,1.39
2018-12-27T10:38:13.024Z,1.36
2018-12-27T10:41:03.268Z,1.30
2018-12-27T10:43:53.346Z,1.23
2018-12-27T10:46:43.652Z,1.29
2018-12-27T10:49:33.664Z,1.44
2018-12-27T10:52:23.833Z,1.33
2018-12-27T10:55:14.008Z,1.41
2018-12-27T10:58:04.649Z,1.40
2018-12-27T11:00:55.040Z,1.61
2018-12-27T11:03:44.966Z,1.76
2018-12-27T11:06:35.263Z,1.86
2018-12-27T11:09:25.100Z,2.04
2018-12-27T11:12:15.050Z,2.19
2018-12-27T11:15:05.584Z,2.51
2018-12-27T11:17:55.603Z,2.92
2018-12-27T11:20:45.737Z,3.19
2018-12-27T11:23:36.129Z,3.42
2018-12-27T11:26:26.520Z,3.62
2018-12-27T11:29:17.190Z,3.67
2018-12-27T11:32:06.674Z,4.17
2018-12-27T11:34:56.657Z,4.78
2018-12-27T11:37:47.198Z,5.02
2018-12-27T11:40:37.436Z,4.90
2018-12-27T11:43:27.215Z,4.98
2018-12-27T11:46:17.494Z,5.11
2018-12-27T11:49:07.382Z,5.05
2018-12-27T11:51:57.295Z,4.29
2018-12-27T11:54:47.152Z,4.27
2018-12-27T11:57:36.971Z,4.18
2018-12-27T12:00:26.902Z,3.85
2018-12-27T12:03:17.046Z,3.93
2018-12-27T12:06:06.536Z,3.87
2018-12-27T12:08:57.114Z,3.67
2018-12-27T12:11:46.743Z,3.71
2018-12-27T12:14:37.284Z,3.67
2018-12-27T12:17:27.855Z,3.68
2018-12-27T12:20:17.608Z,3.92
2018-12-27T12:23:07.752Z,3.59
2018-12-27T12:25:58.022Z,3.77
2018-12-27T12:28:47.746Z,3.37
2018-12-27T12:31:37.840Z,3.62
2018-12-27T12:34:27.638Z,3.34
2018-12-27T12:37:19.447Z,3.08
2018-12-27T12:40:09.649Z,3.11
2018-12-27T12:43:00.307Z,3.32
2018-12-27T12:45:50.199Z,3.47
2018-12-27T12:48:40.889Z,3.58
2018-12-27T12:51:30.389Z,3.63
2018-12-27T12:54:20.096Z,3.61
2018-12-27T12:57:10.196Z,3.72
2018-12-27T17:31:20.505Z,1.18
2018-12-27T17:34:10.159Z,1.17
2018-12-27T17:36:59.911Z,1.13
2018-12-27T17:39:49.719Z,1.09
2018-12-27T17:42:39.678Z,1.07
2018-12-27T17:45:29.632Z,1.04
2018-12-27T17:48:19.632Z,1.07
2018-12-27T17:51:09.374Z,1.07
2018-12-27T17:53:59.237Z,1.01
2018-12-27T17:56:49.411Z,0.94
2018-12-27T17:59:39.236Z,0.89
2018-12-27T18:02:29.653Z,0.84
2018-12-27T18:05:19.638Z,0.85
2018-12-27T18:08:09.779Z,0.86
2018-12-27T18:10:59.711Z,0.87
2018-12-27T18:13:49.889Z,0.92
2018-12-27T18:16:40.018Z,0.93
2018-12-27T18:19:29.993Z,0.94
2018-12-27T18:22:19.938Z,0.92
2018-12-27T18:25:10.003Z,0.96
2018-12-27T18:28:00.430Z,0.93
2018-12-27T18:30:52.866Z,0.95
2018-12-27T18:33:43.353Z,0.88
2018-12-27T18:36:33.114Z,0.90
2018-12-27T18:39:23.180Z,0.88
2018-12-27T18:42:12.985Z,0.80
2018-12-27T18:45:03.095Z,0.80
2018-12-27T18:47:53.611Z,0.84
2018-12-27T18:50:43.856Z,0.86
2018-12-27T18:53:33.964Z,0.86
2018-12-27T18:56:24.422Z,0.80
2018-12-27T18:59:14.888Z,0.76
2018-12-27T19:02:05.675Z,0.73
2018-12-27T19:04:56.323Z,0.73
2018-12-27T19:07:46.690Z,0.71
2018-12-27T19:10:37.303Z,0.72
2018-12-27T19:13:27.163Z,0.68
2018-12-27T19:16:17.430Z,0.68
2018-12-27T19:19:07.767Z,0.66
2018-12-27T19:22:06.800Z,0.65
2018-12-27T19:24:56.676Z,0.63
2018-12-27T19:27:47.115Z,0.64
2018-12-27T19:30:36.992Z,0.63
2018-12-27T19:33:27.454Z,0.59
2018-12-27T19:36:17.467Z,0.56
2018-12-27T19:39:07.873Z,0.55
2018-12-27T19:41:58.364Z,0.56
2018-12-27T19:44:48.474Z,0.58
2018-12-27T19:47:38.691Z,0.58
2018-12-27T19:50:28.412Z,0.58
2018-12-27T19:53:18.438Z,0.57
2018-12-27T19:56:08.401Z,0.57
2018-12-27T19:58:58.832Z,0.53
2018-12-27T20:01:49.288Z,0.52
2018-12-27T20:04:39.702Z,0.51
2018-12-27T20:07:30.221Z,0.53
2018-12-27T20:10:20.651Z,0.55
2018-12-27T20:13:10.887Z,0.52
2018-12-27T20:16:01.006Z,0.51
2018-12-27T20:18:51.574Z,0.55
2018-12-27T20:21:42.143Z,0.58
2018-12-27T20:24:32.564Z,0.60
2018-12-27T20:27:23.064Z,0.60
2018-12-27T20:30:13.716Z,0.50
2018-12-27T20:33:04.168Z,0.44
2018-12-27T20:35:54.947Z,0.48
2018-12-27T20:38:45.139Z,0.48
2018-12-27T20:41:35.487Z,0.47
2018-12-27T20:44:25.644Z,0.51
2018-12-27T20:47:15.356Z,0.54
2018-12-27T20:50:07.055Z,0.56
2018-12-27T20:52:57.092Z,0.50
2018-12-27T20:55:46.896Z,0.41
2018-12-27T20:58:37.268Z,0.42
2018-12-27T21:01:27.216Z,0.47
2018-12-27T21:04:17.757Z,0.52
2018-12-27T21:07:08.232Z,0.55
2018-12-27T21:09:59.036Z,0.52
2018-12-27T21:12:48.495Z,0.52
2018-12-27T21:15:38.427Z,0.51
2018-12-27T21:18:28.541Z,0.48
2018-12-27T21:21:19.126Z,0.47
2018-12-27T21:24:10.690Z,0.49
2018-12-27T21:27:01.340Z,0.41
2018-12-27T21:29:51.734Z,0.27
2018-12-27T21:32:41.790Z,0.32
2018-12-27T21:35:32.234Z,0.40
2018-12-27T21:38:22.458Z,0.44
2018-12-27T21:41:12.185Z,0.49
2018-12-27T21:44:02.116Z,0.51
2018-12-27T21:46:52.078Z,0.51
2018-12-27T21:49:42.142Z,0.46
2018-12-27T21:52:32.402Z,0.46
2018-12-27T21:55:22.530Z,0.46
2018-12-27T21:58:12.906Z,0.48
2018-12-27T22:01:03.071Z,0.49
2018-12-27T22:03:53.715Z,0.28
2018-12-27T22:06:43.563Z,0.31
2018-12-27T22:09:34.012Z,0.34
2018-12-27T22:12:24.490Z,0.38
2018-12-27T22:15:15.156Z,0.38
2018-12-27T22:18:04.975Z,0.40
2018-12-27T22:20:55.435Z,0.44
2018-12-27T22:23:45.755Z,0.44
2018-12-27T22:26:35.837Z,0.40
2018-12-27T22:29:26.501Z,0.37
2018-12-27T22:32:16.980Z,0.30
2018-12-27T22:35:07.146Z,0.31
2018-12-27T22:37:57.411Z,0.39
2018-12-27T22:40:47.581Z,0.39
2018-12-27T22:43:37.866Z,0.34
2018-12-27T22:46:28.508Z,0.41
2018-12-27T22:49:18.812Z,0.40
2018-12-27T22:52:09.161Z,0.44
2018-12-27T22:54:59.642Z,0.44
2018-12-27T22:57:50.031Z,0.44
2018-12-27T23:00:41.196Z,0.46
2018-12-27T23:03:31.714Z,0.47
2018-12-27T23:06:22.113Z,0.30
2018-12-27T23:09:12.092Z,0.28
2018-12-27T23:12:02.510Z,0.32
2018-12-27T23:14:52.826Z,0.36
2018-12-27T23:17:43.448Z,0.33
2018-12-27T23:20:33.961Z,0.32
2018-12-27T23:29:03.447Z,0.36
2018-12-27T23:31:54.055Z,0.32
2018-12-27T23:37:26.690Z,0.27
2018-12-27T23:40:17.011Z,0.26
2018-12-27T23:43:07.299Z,0.24
2018-12-27T23:45:57.453Z,0.24
2018-12-27T23:48:47.910Z,0.24
2018-12-27T23:51:38.855Z,0.22
2018-12-27T23:54:29.010Z,0.21
2018-12-27T23:57:18.619Z,0.18
